Time;durP1;ratioP1;P1;durP2;ratioP2;P2;SDS_P1;SDS_P2;PMS_P1;PMS_P2;Temp;Humidity;BMP_temperature;BMP_pressure;BME280_temperature;BME280_humidity;BME280_pressure;Samples;Min_cycle;Max_cycle;Signal;HPM_P1;HPM_P2
2023/02/18 00:01:26;;;;;;;8.20;1.30;;;;;;;7.08;71.44;101183.40;108808;1256;69724;-79
2023/02/18 00:03:53;;;;;;;6.10;1.40;;;;;;;7.09;71.37;101175.40;108788;1256;72405;-78
2023/02/18 00:06:22;;;;;;;8.20;1.60;;;;;;;7.08;71.84;101171.43;108870;1256;60229;-78
2023/02/18 00:08:50;;;;;;;7.10;1.50;;;;;;;7.05;71.75;101167.30;108888;1255;60423;-78
2023/02/18 00:11:19;;;;;;;6.40;1.40;;;;;;;7.05;71.86;101165.19;108811;1256;74213;-79
2023/02/18 00:13:51;;;;;;;8.70;2.10;;;;;;;7.04;71.84;101156.14;108848;1256;69737;-78
2023/02/18 00:16:19;;;;;;;5.40;1.30;;;;;;;7.04;72.03;101164.23;108904;1256;71762;-79
2023/02/18 00:18:46;;;;;;;7.60;1.50;;;;;;;7.04;72.14;101163.34;108850;1256;60961;-78
2023/02/18 00:21:13;;;;;;;6.80;1.70;;;;;;;7.05;72.50;101170.30;108822;1256;60116;-78
2023/02/18 00:23:41;;;;;;;7.00;1.30;;;;;;;7.03;72.75;101149.21;108869;1256;71649;-78
2023/02/18 00:26:14;;;;;;;7.30;1.50;;;;;;;7.01;72.67;101149.52;108742;1256;69960;-79
2023/02/18 00:28:41;;;;;;;4.80;1.20;;;;;;;7.02;72.94;101154.75;108901;1256;72142;-78
2023/02/18 00:31:20;;;;;;;8.00;1.60;;;;;;;7.02;73.15;101148.94;108856;1256;61192;-79
2023/02/18 00:33:47;;;;;;;6.40;1.70;;;;;;;7.04;73.22;101150.89;108908;1255;59914;-79
2023/02/18 00:36:16;;;;;;;7.40;1.80;;;;;;;7.05;73.64;101151.80;108882;1256;73809;-78
2023/02/18 00:38:48;;;;;;;7.80;1.90;;;;;;;7.07;73.38;101149.71;108867;1255;70041;-77
2023/02/18 00:41:16;;;;;;;7.70;1.40;;;;;;;7.08;73.51;101162.63;108867;1256;71724;-78
2023/02/18 00:43:43;;;;;;;7.20;1.50;;;;;;;7.10;73.29;101163.33;108729;1256;61629;-78
2023/02/18 00:46:11;;;;;;;9.90;1.60;;;;;;;7.11;73.44;101161.80;108742;1256;58940;-78
2023/02/18 00:48:38;;;;;;;6.90;1.30;;;;;;;7.12;73.55;101157.88;108826;1256;72379;-78
2023/02/18 00:51:06;;;;;;;6.00;1.20;;;;;;;7.12;73.69;101156.77;108902;1256;70997;-78
2023/02/18 00:53:33;;;;;;;7.40;1.40;;;;;;;7.13;73.48;101168.13;108750;1256;72966;-78
2023/02/18 00:56:00;;;;;;;6.60;1.70;;;;;;;7.14;73.57;101168.20;108847;1256;58960;-79
2023/02/18 00:58:28;;;;;;;10.10;1.40;;;;;;;7.14;73.80;101168.60;108843;1256;60127;-79
2023/02/18 01:00:55;;;;;;;7.30;1.50;;;;;;;7.14;73.70;101166.50;108732;1256;71416;-78
2023/02/18 01:03:22;;;;;;;10.20;1.90;;;;;;;7.13;73.81;101167.66;108778;1261;71170;-78
2023/02/18 01:05:50;;;;;;;6.60;1.20;;;;;;;7.13;73.73;101168.68;108775;1256;72672;-78
2023/02/18 01:08:17;;;;;;;5.90;1.30;;;;;;;7.11;73.88;101159.31;108812;1256;60063;-78
2023/02/18 01:10:47;;;;;;;8.60;1.40;;;;;;;7.11;73.94;101166.38;108806;1256;60410;-78
2023/02/18 01:13:15;;;;;;;5.80;1.30;;;;;;;7.11;74.39;101171.80;108859;1260;73905;-79
2023/02/18 01:15:42;;;;;;;7.30;1.50;;;;;;;7.12;74.50;101178.77;108903;1255;71411;-78
2023/02/18 01:18:09;;;;;;;6.60;1.30;;;;;;;7.14;74.36;101168.73;108858;1255;72851;-79
2023/02/18 01:20:38;;;;;;;4.60;1.20;;;;;;;7.15;74.50;101174.45;108810;1256;59651;-79
2023/02/18 01:23:05;;;;;;;9.70;1.80;;;;;;;7.17;74.40;101173.41;108870;1255;58835;-79
2023/02/18 01:25:33;;;;;;;7.20;1.70;;;;;;;7.22;74.15;101170.50;108836;1257;73572;-79
2023/02/18 01:28:00;;;;;;;7.20;1.40;;;;;;;7.24;74.13;101170.96;108817;1256;69725;-78
2023/02/18 01:30:27;;;;;;;8.60;1.50;;;;;;;7.28;74.27;101166.70;108824;1256;71132;-78
2023/02/18 01:32:56;;;;;;;6.30;1.50;;;;;;;7.31;74.05;101171.88;108841;1256;60247;-79
2023/02/18 01:35:23;;;;;;;8.80;1.40;;;;;;;7.33;73.96;101174.75;108903;1256;58848;-79
2023/02/18 01:37:50;;;;;;;6.90;1.30;;;;;;;7.37;74.15;101175.84;108915;1256;72911;-78
2023/02/18 01:40:23;;;;;;;5.30;1.20;;;;;;;7.39;73.66;101163.96;108954;1256;70892;-79
2023/02/18 01:42:51;;;;;;;5.20;1.20;;;;;;;7.39;73.67;101156.44;108886;1256;71463;-79
2023/02/18 01:45:46;;;;;;;6.20;1.70;;;;;;;7.41;73.66;101156.57;108901;1259;60928;-79
2023/02/18 01:48:30;;;;;;;7.10;1.40;;;;;;;7.43;73.56;101160.66;108765;1256;60465;-79
2023/02/18 01:51:12;;;;;;;7.00;1.30;;;;;;;7.46;73.49;101150.47;109007;1255;73487;-79
2023/02/18 01:53:46;;;;;;;7.00;1.30;;;;;;;7.50;73.35;101147.98;108933;1256;69733;-79
2023/02/18 01:56:19;;;;;;;5.30;1.20;;;;;;;7.52;73.06;101150.10;109039;1256;71277;-78
2023/02/18 01:58:49;;;;;;;5.20;1.40;;;;;;;7.56;73.39;101143.55;109028;1256;59694;-78
2023/02/18 02:01:16;;;;;;;7.10;1.40;;;;;;;7.58;73.46;101154.10;109019;1256;60547;-79
2023/02/18 02:03:43;;;;;;;7.40;1.80;;;;;;;7.58;73.43;101150.93;108961;1256;74737;-79
2023/02/18 02:06:17;;;;;;;6.80;1.20;;;;;;;7.60;73.01;101146.90;108974;1256;69682;-78
2023/02/18 02:08:46;;;;;;;5.50;1.10;;;;;;;7.62;73.17;101136.00;108983;1256;71133;-79
2023/02/18 02:11:24;;;;;;;8.80;1.60;;;;;;;7.61;73.33;101132.00;108902;1256;60198;-79
2023/02/18 02:14:05;;;;;;;6.50;1.40;;;;;;;7.62;73.41;101139.10;108958;1256;59040;-79
2023/02/18 02:16:42;;;;;;;6.40;1.50;;;;;;;7.63;73.42;101137.48;109001;1256;74393;-78
2023/02/18 02:19:46;;;;;;;7.30;1.30;;;;;;;7.65;73.15;101129.14;108993;1256;69842;-78
2023/02/18 02:22:24;;;;;;;6.10;1.20;;;;;;;7.68;73.63;101116.17;108914;1256;73402;-78
2023/02/18 02:25:20;;;;;;;6.80;1.50;;;;;;;7.68;73.45;101114.45;108963;1256;61223;-79
2023/02/18 02:28:02;;;;;;;5.10;1.00;;;;;;;7.70;73.60;101117.57;108961;1260;59480;-79
2023/02/18 02:31:08;;;;;;;6.50;1.60;;;;;;;7.71;73.53;101123.88;109016;1256;74918;-78
2023/02/18 02:34:03;;;;;;;8.90;1.90;;;;;;;7.72;73.34;101132.30;108945;1256;71241;-79
2023/02/18 02:36:34;;;;;;;8.30;1.50;;;;;;;7.76;72.98;101126.38;108954;1256;71139;-79
2023/02/18 02:39:10;;;;;;;6.10;1.20;;;;;;;7.78;72.89;101126.33;108982;1256;60905;-79
2023/02/18 02:41:50;;;;;;;6.70;1.60;;;;;;;7.81;72.84;101125.19;108977;1256;60529;-79
2023/02/18 02:44:22;;;;;;;6.20;1.10;;;;;;;7.84;73.05;101120.55;108983;1255;74582;-78
2023/02/18 02:47:08;;;;;;;5.80;1.50;;;;;;;7.85;73.18;101118.69;108978;1256;71740;-78
2023/02/18 02:49:52;;;;;;;6.10;1.50;;;;;;;7.87;73.55;101120.38;108973;1256;73561;-78
2023/02/18 02:52:26;;;;;;;8.50;1.50;;;;;;;7.87;73.57;101115.13;108904;1256;60860;-79
2023/02/18 02:54:53;;;;;;;8.10;1.80;;;;;;;7.90;73.46;101112.95;108957;1255;60171;-78
2023/02/18 02:57:20;;;;;;;8.20;1.70;;;;;;;7.90;73.55;101109.91;108905;1256;74526;-78
2023/02/18 02:59:54;;;;;;;7.00;1.50;;;;;;;7.92;73.70;101104.02;108996;1256;70370;-78
2023/02/18 03:02:49;;;;;;;8.10;1.30;;;;;;;7.95;74.08;101094.45;108947;1256;71040;-79
2023/02/18 03:05:33;;;;;;;9.10;1.60;;;;;;;7.96;74.17;101093.14;108942;1257;61168;-78
2023/02/18 03:08:07;;;;;;;6.20;1.50;;;;;;;7.96;74.50;101092.02;108992;1256;59320;-79
2023/02/18 03:10:56;;;;;;;11.20;1.70;;;;;;;7.98;74.60;101090.27;108888;1256;74802;-78
2023/02/18 03:13:37;;;;;;;10.50;1.70;;;;;;;8.00;74.61;101091.47;108950;1256;68985;-78
2023/02/18 03:16:25;;;;;;;9.00;1.60;;;;;;;8.01;74.84;101088.58;108885;1256;71124;-78
2023/02/18 03:19:10;;;;;;;6.20;1.30;;;;;;;8.03;75.35;101089.79;108969;1259;59343;-78
2023/02/18 03:21:50;;;;;;;8.80;1.80;;;;;;;8.03;75.48;101084.02;109000;1255;60187;-78
2023/02/18 03:24:28;;;;;;;8.30;1.70;;;;;;;8.03;76.12;101075.20;109026;1256;74776;-78
2023/02/18 03:27:11;;;;;;;9.10;1.70;;;;;;;8.02;76.82;101073.49;108949;1259;69628;-78
2023/02/18 03:29:42;;;;;;;7.20;1.80;;;;;;;8.03;77.43;101066.65;108958;1256;72364;-78
2023/02/18 03:32:12;;;;;;;9.80;2.00;;;;;;;8.03;77.86;101059.02;108928;1256;59793;-78
2023/02/18 03:34:47;;;;;;;13.10;2.40;;;;;;;8.01;78.59;101051.73;108982;1256;60358;-78
2023/02/18 03:37:15;;;;;;;11.20;2.50;;;;;;;8.01;79.32;101050.05;108997;1256;73892;-78
2023/02/18 03:39:47;;;;;;;8.10;2.00;;;;;;;7.99;79.72;101054.58;108982;1255;70898;-78
2023/02/18 03:42:15;;;;;;;9.30;2.50;;;;;;;7.99;80.44;101048.59;108976;1256;71729;-78
2023/02/18 03:44:42;;;;;;;8.20;2.50;;;;;;;8.00;81.16;101046.30;108922;1256;60905;-78
2023/02/18 03:47:10;;;;;;;8.30;2.70;;;;;;;7.98;82.32;101045.35;108901;1255;59986;-78
2023/02/18 03:49:37;;;;;;;8.50;3.00;;;;;;;8.00;82.94;101048.02;109024;1256;73110;-78
2023/02/18 03:52:04;;;;;;;10.80;3.60;;;;;;;8.01;82.98;101047.23;108962;1256;70951;-78
2023/02/18 03:54:31;;;;;;;10.50;3.50;;;;;;;8.01;83.27;101035.88;108768;1256;72750;-78
2023/02/18 03:56:58;;;;;;;10.30;3.00;;;;;;;8.04;83.58;101033.02;108901;1256;60854;-78
2023/02/18 03:59:26;;;;;;;12.00;4.10;;;;;;;8.05;83.72;101023.05;108941;1256;59760;-78
2023/02/18 04:01:53;;;;;;;10.80;3.70;;;;;;;8.06;83.67;101022.34;108778;1259;73974;-78
2023/02/18 04:04:20;;;;;;;9.50;3.10;;;;;;;8.10;83.36;101024.14;108873;1262;69615;-78
2023/02/18 04:06:47;;;;;;;10.00;3.30;;;;;;;8.11;83.30;101020.09;108946;1256;72769;-78
2023/02/18 04:09:14;;;;;;;9.10;3.30;;;;;;;8.12;83.42;101019.48;108884;1256;60904;-78
2023/02/18 04:11:42;;;;;;;10.40;3.30;;;;;;;8.13;83.26;101021.55;108876;1256;60082;-78
2023/02/18 04:14:12;;;;;;;13.30;3.90;;;;;;;8.14;82.96;101021.29;108918;1256;75048;-78
2023/02/18 04:16:39;;;;;;;12.20;3.80;;;;;;;8.14;83.15;101021.29;108909;1260;71193;-78
2023/02/18 04:19:07;;;;;;;10.90;4.10;;;;;;;8.12;83.46;101022.36;109013;1256;74691;-78
2023/02/18 04:21:34;;;;;;;13.00;4.60;;;;;;;8.09;84.66;101018.17;108887;1256;60917;-78
2023/02/18 04:24:01;;;;;;;12.30;5.30;;;;;;;8.07;85.37;101018.77;108899;1260;59348;-79
2023/02/18 04:26:28;;;;;;;13.10;6.50;;;;;;;8.05;86.47;101016.84;108890;1256;74456;-79
2023/02/18 04:28:56;;;;;;;17.50;7.20;;;;;;;8.05;87.25;101016.81;108929;1257;70001;-79
2023/02/18 04:31:23;;;;;;;17.40;7.80;;;;;;;8.05;87.75;101023.21;108940;1257;71111;-79
2023/02/18 04:33:50;;;;;;;16.20;7.80;;;;;;;8.06;88.10;101020.48;108907;1255;60033;-79
2023/02/18 04:36:17;;;;;;;17.10;8.30;;;;;;;8.04;89.06;101014.65;108973;1259;58953;-79
2023/02/18 04:38:44;;;;;;;18.00;9.10;;;;;;;8.03;89.89;101013.95;108926;1260;73641;-78
2023/02/18 04:41:11;;;;;;;18.00;9.20;;;;;;;7.98;90.84;101016.35;108882;1256;70516;-78
2023/02/18 04:43:38;;;;;;;16.10;8.50;;;;;;;7.91;92.26;101013.11;108970;1256;72860;-78
2023/02/18 04:46:06;;;;;;;17.40;9.50;;;;;;;7.79;93.70;101015.36;108886;1256;60546;-78
2023/02/18 04:48:33;;;;;;;17.30;8.80;;;;;;;7.73;94.23;101004.07;108919;1256;59539;-78
2023/02/18 04:51:01;;;;;;;18.30;8.80;;;;;;;7.64;95.03;101001.61;108970;1256;73132;-78
2023/02/18 04:53:29;;;;;;;19.30;9.80;;;;;;;7.55;96.73;101002.01;108987;1257;69657;-78
2023/02/18 04:55:57;;;;;;;17.20;9.90;;;;;;;7.48;97.33;100996.30;108992;1254;70233;-78
2023/02/18 04:58:24;;;;;;;23.90;10.70;;;;;;;7.45;96.89;100988.14;108981;1257;59786;-77
2023/02/18 05:00:52;;;;;;;22.20;10.50;;;;;;;7.43;97.40;100982.16;108898;1256;60144;-77
2023/02/18 05:03:20;;;;;;;21.70;10.90;;;;;;;7.41;97.80;100975.05;108933;1256;74728;-77
2023/02/18 05:05:47;;;;;;;24.40;11.00;;;;;;;7.38;97.83;100972.44;108804;1257;69805;-77
2023/02/18 05:08:15;;;;;;;23.00;11.90;;;;;;;7.39;97.86;100973.83;108966;1256;70558;-78
2023/02/18 05:10:42;;;;;;;23.10;11.20;;;;;;;7.36;98.57;100977.93;108923;1256;60006;-78
2023/02/18 05:13:09;;;;;;;22.40;11.30;;;;;;;7.33;98.60;100975.17;108812;1257;59032;-77
2023/02/18 05:15:36;;;;;;;22.50;11.20;;;;;;;7.32;98.55;100976.48;108967;1256;74394;-78
2023/02/18 05:18:04;;;;;;;22.10;11.60;;;;;;;7.32;98.66;100971.91;108942;1256;70791;-78
2023/02/18 05:20:32;;;;;;;25.50;12.50;;;;;;;7.34;98.82;100967.38;108907;1256;71460;-78
2023/02/18 05:22:59;;;;;;;25.10;12.00;;;;;;;7.35;98.72;100959.20;108898;1256;59653;-78
2023/02/18 05:25:26;;;;;;;23.30;11.30;;;;;;;7.38;98.98;100951.33;108886;1261;59331;-78
2023/02/18 05:27:53;;;;;;;23.40;11.50;;;;;;;7.41;99.00;100953.73;108898;1260;73668;-78
2023/02/18 05:30:20;;;;;;;23.20;11.50;;;;;;;7.41;98.87;100951.75;108973;1258;69624;-78
2023/02/18 05:32:47;;;;;;;21.70;12.40;;;;;;;7.43;98.90;100949.44;108981;1257;71512;-78
2023/02/18 05:35:14;;;;;;;23.80;11.60;;;;;;;7.45;98.75;100943.15;108988;1257;59995;-78
2023/02/18 05:37:41;;;;;;;24.20;12.30;;;;;;;7.46;98.82;100940.35;108970;1256;58935;-78
2023/02/18 05:40:10;;;;;;;26.00;12.10;;;;;;;7.46;98.64;100936.52;108952;1256;74628;-78
2023/02/18 05:42:37;;;;;;;23.40;11.60;;;;;;;7.46;99.12;100932.64;108989;1260;69685;-78
2023/02/18 05:45:04;;;;;;;22.50;12.10;;;;;;;7.47;99.13;100924.29;108871;1256;70148;-78
2023/02/18 05:47:31;;;;;;;22.80;11.70;;;;;;;7.48;98.94;100916.75;108976;1256;59935;-77
2023/02/18 05:49:58;;;;;;;23.60;12.40;;;;;;;7.50;98.93;100911.98;109026;1259;60194;-78
2023/02/18 05:52:28;;;;;;;23.90;12.90;;;;;;;7.51;99.32;100906.23;109011;1257;75567;-78
2023/02/18 05:54:55;;;;;;;23.70;12.60;;;;;;;7.55;99.29;100900.45;109013;1257;69650;-78
2023/02/18 05:57:22;;;;;;;20.60;12.70;;;;;;;7.56;99.06;100893.30;108897;1257;72652;-78
2023/02/18 05:59:49;;;;;;;24.80;13.20;;;;;;;7.56;99.27;100884.84;108917;1255;60314;-78
2023/02/18 06:02:16;;;;;;;23.60;12.70;;;;;;;7.59;99.24;100887.91;108893;1256;59522;-78
2023/02/18 06:04:43;;;;;;;20.80;11.90;;;;;;;7.62;99.20;100887.98;109010;1257;73512;-76
2023/02/18 06:07:10;;;;;;;23.90;12.50;;;;;;;7.63;99.11;100889.25;108979;1256;70168;-76
2023/02/18 06:09:37;;;;;;;24.50;12.90;;;;;;;7.64;99.43;100885.30;108853;1257;71179;-76
2023/02/18 06:12:04;;;;;;;21.00;12.50;;;;;;;7.63;99.25;100876.23;108840;1256;59619;-76
2023/02/18 06:14:31;;;;;;;20.60;12.30;;;;;;;7.64;99.39;100862.75;108912;1257;59061;-76
2023/02/18 06:16:57;;;;;;;19.60;12.10;;;;;;;7.64;99.46;100858.33;108940;1257;74754;-76
2023/02/18 06:19:24;;;;;;;19.80;12.60;;;;;;;7.62;99.25;100861.18;108981;1256;72355;-76
2023/02/18 06:21:51;;;;;;;21.00;12.30;;;;;;;7.60;99.58;100851.20;108975;1257;71270;-75
2023/02/18 06:24:18;;;;;;;20.70;12.70;;;;;;;7.59;99.47;100847.80;109004;1260;59099;-75
2023/02/18 06:26:45;;;;;;;22.90;13.30;;;;;;;7.58;99.50;100836.04;108940;1257;58916;-75
2023/02/18 06:29:12;;;;;;;21.60;13.40;;;;;;;7.59;99.89;100834.20;109007;1259;73985;-75
2023/02/18 06:31:39;;;;;;;20.80;13.10;;;;;;;7.61;99.92;100833.48;109064;1257;69962;-75
2023/02/18 06:34:06;;;;;;;21.80;13.70;;;;;;;7.63;99.85;100823.42;109239;1256;71518;-75
2023/02/18 06:36:33;;;;;;;23.30;13.20;;;;;;;7.63;99.82;100816.71;109136;1256;59631;-75
2023/02/18 06:39:02;;;;;;;24.10;14.10;;;;;;;7.64;99.89;100809.61;108929;1264;59052;-75
2023/02/18 06:41:29;;;;;;;21.40;13.10;;;;;;;7.64;100.00;100808.20;109285;1256;74400;-75
2023/02/18 06:43:56;;;;;;;23.50;14.40;;;;;;;7.66;100.00;100801.52;109257;1256;71229;-75
2023/02/18 06:46:23;;;;;;;24.60;14.80;;;;;;;7.67;100.00;100790.46;109138;1257;71233;-75
2023/02/18 06:48:50;;;;;;;27.60;17.10;;;;;;;7.69;100.00;100793.76;108874;1256;59945;-75
2023/02/18 06:51:18;;;;;;;24.00;15.20;;;;;;;7.70;100.00;100793.53;108861;1257;61093;-75
2023/02/18 06:53:45;;;;;;;24.80;15.30;;;;;;;7.72;100.00;100781.52;108880;1257;76029;-75
2023/02/18 06:56:12;;;;;;;21.80;14.30;;;;;;;7.75;100.00;100778.02;108955;1257;70839;-75
2023/02/18 06:58:40;;;;;;;22.70;14.90;;;;;;;7.77;100.00;100777.53;108897;1257;72372;-75
2023/02/18 07:01:07;;;;;;;21.60;13.90;;;;;;;7.78;100.00;100769.65;108951;1256;60144;-75
2023/02/18 07:03:34;;;;;;;23.30;14.50;;;;;;;7.79;100.00;100756.52;108835;1261;58971;-75
2023/02/18 07:06:01;;;;;;;24.30;15.00;;;;;;;7.80;100.00;100760.52;108851;1257;74675;-76
2023/02/18 07:08:29;;;;;;;23.60;15.40;;;;;;;7.80;100.00;100756.05;108791;1257;69770;-76
2023/02/18 07:10:56;;;;;;;27.00;16.00;;;;;;;7.81;100.00;100745.25;108963;1256;72734;-76
2023/02/18 07:13:23;;;;;;;25.00;15.10;;;;;;;7.84;100.00;100747.41;108952;1257;59673;-76
2023/02/18 07:15:50;;;;;;;25.70;14.90;;;;;;;7.87;100.00;100746.05;108947;1258;60028;-76
2023/02/18 07:18:17;;;;;;;25.30;15.60;;;;;;;7.91;100.00;100735.23;108776;1258;73387;-76
2023/02/18 07:20:44;;;;;;;26.30;15.00;;;;;;;7.92;100.00;100727.55;108909;1257;69026;-77
2023/02/18 07:23:11;;;;;;;25.50;15.70;;;;;;;7.94;100.00;100724.06;108853;1257;72931;-77
2023/02/18 07:25:38;;;;;;;28.10;15.30;;;;;;;7.94;100.00;100722.02;108881;1256;61538;-78
2023/02/18 07:28:05;;;;;;;24.70;15.00;;;;;;;7.95;100.00;100726.02;108842;1257;60153;-77
2023/02/18 07:30:32;;;;;;;23.30;14.60;;;;;;;7.97;100.00;100718.10;108828;1257;73682;-77
2023/02/18 07:32:59;;;;;;;24.10;14.80;;;;;;;7.98;100.00;100719.23;108757;1258;70010;-77
2023/02/18 07:35:29;;;;;;;23.80;14.60;;;;;;;7.99;100.00;100714.84;108873;1257;73498;-77
2023/02/18 07:37:56;;;;;;;26.10;14.70;;;;;;;8.00;100.00;100700.12;108819;1256;60880;-77
2023/02/18 07:40:24;;;;;;;22.50;13.60;;;;;;;8.01;100.00;100687.96;108819;1256;59948;-77
2023/02/18 07:42:51;;;;;;;25.10;13.40;;;;;;;8.01;100.00;100685.40;108891;1255;74706;-76
2023/02/18 07:45:18;;;;;;;21.10;12.30;;;;;;;8.03;100.00;100676.58;108899;1260;71151;-76
2023/02/18 07:47:45;;;;;;;23.30;13.50;;;;;;;8.06;100.00;100675.64;108296;1257;757757;-76
2023/02/18 07:50:12;;;;;;;19.90;11.70;;;;;;;8.08;100.00;100665.90;108894;1257;60911;-76
2023/02/18 07:52:39;;;;;;;19.40;11.90;;;;;;;8.09;100.00;100667.37;109008;1257;58975;-76
2023/02/18 07:55:06;;;;;;;20.80;12.10;;;;;;;8.11;100.00;100664.10;108890;1257;74689;-76
2023/02/18 07:57:56;;;;;;;22.30;12.30;;;;;;;8.14;100.00;100668.34;108976;1258;69671;-76
2023/02/18 08:00:20;;;;;;;17.80;10.90;;;;;;;8.20;100.00;100659.73;108839;1257;71419;-76
2023/02/18 08:02:47;;;;;;;19.70;11.00;;;;;;;8.24;100.00;100655.42;108880;1258;59963;-76
2023/02/18 08:05:14;;;;;;;17.10;10.40;;;;;;;8.29;100.00;100652.39;108979;1257;60236;-76
2023/02/18 08:07:41;;;;;;;16.90;10.20;;;;;;;8.35;100.00;100640.88;108883;1257;72415;-74
2023/02/18 08:10:09;;;;;;;20.90;10.60;;;;;;;8.40;100.00;100632.73;108768;1257;69656;-74
2023/02/18 08:12:36;;;;;;;18.50;10.40;;;;;;;8.46;100.00;100631.45;108828;1257;72421;-75
2023/02/18 08:15:04;;;;;;;16.80;9.70;;;;;;;8.53;100.00;100629.98;108850;1256;62423;-76
2023/02/18 08:17:31;;;;;;;15.10;8.60;;;;;;;8.59;100.00;100631.28;108971;1256;60027;-75
2023/02/18 08:19:58;;;;;;;16.80;9.30;;;;;;;8.68;100.00;100631.11;108972;1257;74692;-76
2023/02/18 08:22:25;;;;;;;14.40;8.70;;;;;;;8.76;100.00;100628.39;109010;1255;69663;-75
2023/02/18 08:24:55;;;;;;;17.50;9.90;;;;;;;8.87;100.00;100628.48;108923;1257;73109;-75
2023/02/18 08:27:22;;;;;;;27.60;12.70;;;;;;;8.98;100.00;100625.20;109009;1254;59739;-75
2023/02/18 08:29:49;;;;;;;24.50;12.60;;;;;;;9.09;100.00;100621.02;109003;1257;59041;-75
2023/02/18 08:32:16;;;;;;;14.30;7.90;;;;;;;9.18;100.00;100619.50;108793;1257;75031;-75
2023/02/18 08:34:45;;;;;;;13.60;8.00;;;;;;;9.26;100.00;100612.45;108904;1257;71672;-75
2023/02/18 08:37:12;;;;;;;9.60;6.30;;;;;;;9.33;100.00;100612.65;108803;1255;72783;-75
2023/02/18 08:39:39;;;;;;;8.90;5.20;;;;;;;9.38;100.00;100615.66;109044;1254;60899;-75
2023/02/18 08:42:07;;;;;;;7.20;5.00;;;;;;;9.44;100.00;100612.04;108877;1257;60161;-75
2023/02/18 08:44:33;;;;;;;6.70;4.30;;;;;;;9.51;100.00;100604.44;108989;1254;72935;-75
2023/02/18 08:47:01;;;;;;;5.80;3.70;;;;;;;9.55;100.00;100600.45;108820;1256;69992;-75
2023/02/18 08:49:28;;;;;;;5.90;3.30;;;;;;;9.57;100.00;100591.84;108974;1256;72373;-75
2023/02/18 08:51:55;;;;;;;4.50;3.00;;;;;;;9.63;100.00;100583.84;108936;1254;61481;-75
2023/02/18 08:54:22;;;;;;;6.60;3.30;;;;;;;9.67;100.00;100582.96;108831;1256;59096;-75
2023/02/18 08:56:49;;;;;;;4.50;2.10;;;;;;;9.70;100.00;100583.71;108814;1256;74594;-75
2023/02/18 08:59:16;;;;;;;3.10;1.40;;;;;;;9.73;100.00;100592.61;108880;1257;69630;-75
2023/02/18 09:01:43;;;;;;;2.70;1.30;;;;;;;9.79;100.00;100588.38;108985;1257;73236;-76
2023/02/18 09:04:10;;;;;;;2.70;1.40;;;;;;;9.87;100.00;100586.42;108968;1256;61476;-76
2023/02/18 09:06:38;;;;;;;2.50;1.50;;;;;;;9.95;100.00;100579.65;108886;1254;59488;-76
2023/02/18 09:09:05;;;;;;;2.30;1.40;;;;;;;10.05;100.00;100568.34;109065;1254;73100;-76
2023/02/18 09:11:33;;;;;;;3.00;1.40;;;;;;;10.10;100.00;100581.52;108943;1256;70947;-76
2023/02/18 09:13:59;;;;;;;2.20;1.10;;;;;;;10.16;100.00;100570.02;108992;1255;72386;-76
2023/02/18 09:16:27;;;;;;;2.20;1.30;;;;;;;10.22;100.00;100572.62;108938;1256;60462;-76
2023/02/18 09:18:54;;;;;;;2.30;1.20;;;;;;;10.25;100.00;100561.27;108905;1255;59106;-77
2023/02/18 09:21:22;;;;;;;2.00;1.10;;;;;;;10.29;100.00;100551.44;108978;1255;74392;-77
2023/02/18 09:23:49;;;;;;;1.90;1.10;;;;;;;10.32;100.00;100548.35;108822;1256;70691;-77
2023/02/18 09:26:17;;;;;;;2.50;1.70;;;;;;;10.36;100.00;100547.00;108953;1256;72521;-77
2023/02/18 09:28:44;;;;;;;1.60;1.00;;;;;;;10.41;100.00;100541.75;108872;1256;61935;-77
2023/02/18 09:31:14;;;;;;;3.00;1.90;;;;;;;10.51;100.00;100540.25;108897;1256;59140;-77
2023/02/18 09:33:46;;;;;;;1.90;1.10;;;;;;;10.55;100.00;100547.90;108985;1255;73800;-77
2023/02/18 09:36:13;;;;;;;1.30;0.90;;;;;;;10.60;100.00;100539.87;108863;1256;71664;-76
2023/02/18 09:38:40;;;;;;;1.40;0.80;;;;;;;10.66;100.00;100542.11;108932;1257;72734;-76
2023/02/18 09:41:18;;;;;;;1.70;0.70;;;;;;;10.70;100.00;100567.75;109072;1254;60469;-76
2023/02/18 09:43:48;;;;;;;1.80;0.60;;;;;;;10.76;100.00;100539.31;108938;1257;59126;-76
2023/02/18 09:46:27;;;;;;;1.50;0.70;;;;;;;10.78;100.00;100545.58;108999;1259;73696;-73
2023/02/18 09:48:54;;;;;;;1.00;0.70;;;;;;;10.82;99.11;100552.42;108873;1259;70008;-75
2023/02/18 09:51:21;;;;;;;0.70;0.50;;;;;;;10.90;98.98;100540.20;108962;1256;72722;-75
2023/02/18 09:53:49;;;;;;;1.00;0.60;;;;;;;10.93;99.14;100545.32;108830;1255;60612;-75
2023/02/18 09:56:30;;;;;;;0.90;0.60;;;;;;;10.95;99.32;100535.67;108898;1256;58879;-75
2023/02/18 09:59:03;;;;;;;1.00;0.50;;;;;;;10.94;99.36;100547.99;108818;1256;72453;-75
2023/02/18 10:01:35;;;;;;;1.00;0.70;;;;;;;10.94;99.77;100534.48;108979;1256;70990;-75
2023/02/18 10:04:29;;;;;;;0.90;0.60;;;;;;;10.91;99.94;100548.19;108894;1256;71526;-75
2023/02/18 10:06:57;;;;;;;1.10;0.70;;;;;;;10.91;99.86;100541.55;108979;1256;60566;-75
2023/02/18 10:09:37;;;;;;;1.00;0.60;;;;;;;10.85;99.88;100536.34;108884;1256;59125;-75
2023/02/18 10:12:17;;;;;;;2.00;0.70;;;;;;;10.81;100.00;100526.82;108979;1255;75717;-74
2023/02/18 10:14:49;;;;;;;0.90;0.60;;;;;;;10.78;100.00;100519.29;108994;1255;70565;-74
2023/02/18 10:17:16;;;;;;;1.70;0.80;;;;;;;10.74;100.00;100523.12;108986;1255;72634;-77
2023/02/18 10:19:46;;;;;;;1.30;0.70;;;;;;;10.70;100.00;100520.23;108983;1256;59975;-75
2023/02/18 10:22:15;;;;;;;1.20;0.70;;;;;;;10.73;100.00;100524.84;108901;1257;60589;-74
2023/02/18 10:25:07;;;;;;;1.30;0.80;;;;;;;10.70;100.00;100542.30;108897;1256;73308;-74
2023/02/18 10:27:37;;;;;;;1.80;0.90;;;;;;;10.60;100.00;100546.28;108885;1256;71424;-75
2023/02/18 10:30:16;;;;;;;1.80;0.80;;;;;;;10.57;100.00;100540.84;108936;1256;71177;-75
2023/02/18 10:32:44;;;;;;;1.50;0.90;;;;;;;10.50;100.00;100532.67;108936;1256;60915;-74
2023/02/18 10:35:54;;;;;;;1.40;1.00;;;;;;;10.43;100.00;100528.48;108857;1257;60416;-76
2023/02/18 10:38:23;;;;;;;1.80;1.00;;;;;;;10.34;100.00;100530.77;108651;1256;73184;-77
2023/02/18 10:41:07;;;;;;;1.90;1.30;;;;;;;10.28;100.00;100531.48;108971;1255;70177;-75
2023/02/18 10:43:54;;;;;;;1.50;0.90;;;;;;;10.22;100.00;100536.56;108976;1256;72950;-75
2023/02/18 10:46:48;;;;;;;2.90;1.20;;;;;;;10.18;100.00;100525.13;108944;1255;60468;-76
2023/02/18 10:49:24;;;;;;;2.10;1.40;;;;;;;10.13;100.00;100526.44;108982;1255;60709;-76
2023/02/18 10:51:55;;;;;;;2.00;1.00;;;;;;;10.09;100.00;100519.65;108960;1255;74693;-76
2023/02/18 10:54:45;;;;;;;1.70;1.10;;;;;;;10.09;100.00;100519.45;108981;1256;71033;-76
2023/02/18 10:57:21;;;;;;;2.20;1.00;;;;;;;10.08;100.00;100527.34;108928;1256;71105;-76
2023/02/18 11:00:15;;;;;;;2.00;1.00;;;;;;;10.10;100.00;100511.89;108968;1257;61784;-76
2023/02/18 11:02:43;;;;;;;1.90;1.30;;;;;;;10.13;100.00;100506.23;108851;1256;60138;-77
2023/02/18 11:05:19;;;;;;;2.90;1.70;;;;;;;10.17;100.00;100500.80;108815;1256;75787;-76
2023/02/18 11:07:56;;;;;;;1.40;0.80;;;;;;;10.27;100.00;100503.66;108951;1256;70908;-76
2023/02/18 11:10:31;;;;;;;2.00;0.80;;;;;;;10.34;100.00;100501.81;108899;1256;72475;-77
2023/02/18 11:13:09;;;;;;;1.30;0.70;;;;;;;10.40;100.00;100502.77;108901;1256;61720;-77
2023/02/18 11:15:36;;;;;;;1.30;0.70;;;;;;;10.48;100.00;100497.64;108990;1255;59898;-76
2023/02/18 11:18:34;;;;;;;1.30;0.80;;;;;;;10.55;100.00;100485.39;109004;1256;73471;-76
2023/02/18 11:21:04;;;;;;;1.40;0.80;;;;;;;10.58;100.00;100491.35;108967;1256;69359;-75
2023/02/18 11:23:31;;;;;;;1.40;0.80;;;;;;;10.55;100.00;100484.61;108842;1256;73390;-75
2023/02/18 11:26:03;;;;;;;1.30;0.80;;;;;;;10.48;100.00;100488.79;108859;1255;59526;-75
2023/02/18 11:28:41;;;;;;;1.20;0.70;;;;;;;10.39;100.00;100498.71;109012;1255;59078;-74
2023/02/18 11:31:10;;;;;;;1.10;0.70;;;;;;;10.27;100.00;100500.48;108955;1256;74194;-74